Airfield :
LOGIN :

Register | Disclaimer

   EN    FR    IT 

 










Legend :    VFR   Marginal VFR   IFR   Intensive IFR   Very Intensive IFR
Visi :
Ceiling :
>= 8 km
>= 3000ft
5 to 8 km
1000 to 3000 ft
1500m to 5 km
500 to 1000 ft
800 to 1500m
200 to 500 ft
< 800m
< 200 ft
Symbols :   Thunderstorms  Fog  Heavy snow  Heavy precipitations  Wind > 20 kt
SIGMETs :     Misc.  Thunderstorms  Icing  Turbulence  Mountain Waves  Volcanic Ashes






- Airport Elevation : 187 ft


ETNW - Wunstorf AB

CURRENT METAR :
  • 191620Z 28013KT 9999 FEW020 SCT025 BKN047 06/02 Q1017 BLU BLU BECMG BLU+

EXPIRED METARs :
  • 191520Z 28017KT 9999 FEW020 BKN025 07/02 Q1016 BLU BLU TEMPO GRN
  • 191420Z 29019G31KT 9999 VCSH FEW015 SCT025CB BKN050 07/01 Q1015 BLU BLU TEMPO GRN
  • 191330Z 27018G28KT 9999 -SHRA FEW017 SCT027CB BKN050 07/02 Q1014 BLU BLU TEMPO GRN

TAF TAF ETNW
Valid from the 19 at 12:00 until the 20 at 12:00 UTC


191120Z 1912/2012 27015G25KT 9999 NSW BKN025
TEMPO 1912/1916 29018G32KT 4000 SHRA BKN010 BKN015CB
BECMG 1916/1918 26008KT 9999 NSW SCT030
BECMG 2001/2003 20006KT 8000 NSW BKN025 OVC140
BECMG 2003/2005 19011KT 6000 -RADZ BKN012 OVC020
TEMPO 2005/2010 19013G23KT 2000 RADZ OVC008
BECMG 2010/2012 21015G28KT 8000 NSW SCT012 BKN025 BY ETGL



MET'MAP, your aeronautical weather chart ! - Copyright ORBIFLY December 2007 - Disclaimer

ORBIFLY MET'MAP TEAM :

Programming & Development : Alexandra Zaïnal
Concept & original design : Baudouin d'Aumeries
Assistance for programming : Marc-Olivier Méhu
Technical & hardware support : Manuel Goepfert

Contact : metmap@orbifly.com




SOURCES & CREDITS :

   NOAA